Weather at Grad Sunca Helipad

Public forecast

Using degrees Celsius for public forecast. Weather courtesy of forecast.io.

Closest aviation weather report (METAR) to Grad Sunca Helipad

Closest report is Dubrovnik Ruđer Bošković Airport, 8.8 nm (16.3 km) S.

2024/05/24 06:30 (retrieved 34 minutes ago)

LDDU 240630Z 13004KT 060V170 CAVOK 20/16 Q1019 NOSIG

Closest aviation forecast (TAF) to Grad Sunca Helipad

Closest forecast is Dubrovnik Ruđer Bošković Airport, 8.8 nm (16.3 km) S.

2024/05/24 06:27 (retrieved 37 minutes ago)

TAF TAF LDDU 240525Z 2406/2506 20007KT 9999 FEW040 TX23/2414Z TN16/2502Z BECMG 2411/2413 26008KT BECMG 2418/2420 04005KT